sensor_id;sensor_type;location;lat;lon;timestamp;pressure;altitude;pressure_sealevel;temperature;humidity
2841;BME280;53423;49.224;12.074;2023-04-27T00:02:03;97905.63;;;7.33;60.55
2841;BME280;53423;49.224;12.074;2023-04-27T00:04:32;97902.47;;;7.30;60.31
2841;BME280;53423;49.224;12.074;2023-04-27T00:07:00;97902.03;;;7.34;59.96
2841;BME280;53423;49.224;12.074;2023-04-27T00:09:28;97902.88;;;7.35;59.32
2841;BME280;53423;49.224;12.074;2023-04-27T00:11:56;97905.09;;;7.20;59.10
2841;BME280;53423;49.224;12.074;2023-04-27T00:14:24;97898.50;;;7.16;60.11
2841;BME280;53423;49.224;12.074;2023-04-27T00:16:54;97899.31;;;7.17;59.75
2841;BME280;53423;49.224;12.074;2023-04-27T00:19:22;97897.69;;;7.25;59.24
2841;BME280;53423;49.224;12.074;2023-04-27T00:21:51;97899.03;;;7.29;58.87
2841;BME280;53423;49.224;12.074;2023-04-27T00:24:19;97898.09;;;7.30;57.92
2841;BME280;53423;49.224;12.074;2023-04-27T00:26:47;97894.50;;;7.31;58.48
2841;BME280;53423;49.224;12.074;2023-04-27T00:29:15;97907.41;;;7.23;58.87
2841;BME280;53423;49.224;12.074;2023-04-27T00:31:43;97900.84;;;7.29;58.77
2841;BME280;53423;49.224;12.074;2023-04-27T00:34:11;97899.84;;;7.30;59.33
2841;BME280;53423;49.224;12.074;2023-04-27T00:36:38;97901.91;;;7.36;58.20
2841;BME280;53423;49.224;12.074;2023-04-27T00:39:08;97897.25;;;7.30;58.48
2841;BME280;53423;49.224;12.074;2023-04-27T00:41:36;97895.06;;;7.25;59.01
2841;BME280;53423;49.224;12.074;2023-04-27T00:44:05;97903.03;;;7.24;59.16
2841;BME280;53423;49.224;12.074;2023-04-27T00:46:33;97900.69;;;7.30;59.16
2841;BME280;53423;49.224;12.074;2023-04-27T00:49:01;97901.63;;;7.29;58.70
2841;BME280;53423;49.224;12.074;2023-04-27T00:51:29;97898.34;;;7.27;58.59
2841;BME280;53423;49.224;12.074;2023-04-27T00:53:58;97895.06;;;7.25;58.76
2841;BME280;53423;49.224;12.074;2023-04-27T00:56:28;97910.16;;;7.22;59.13
2841;BME280;53423;49.224;12.074;2023-04-27T00:58:56;97899.88;;;7.20;59.37
2841;BME280;53423;49.224;12.074;2023-04-27T01:01:25;97890.66;;;7.16;58.78
2841;BME280;53423;49.224;12.074;2023-04-27T01:03:53;97893.69;;;7.21;58.47
2841;BME280;53423;49.224;12.074;2023-04-27T01:06:22;97893.69;;;7.21;59.95
2841;BME280;53423;49.224;12.074;2023-04-27T01:08:50;97898.38;;;7.08;59.52
2841;BME280;53423;49.224;12.074;2023-04-27T01:11:18;97895.47;;;7.11;60.22
2841;BME280;53423;49.224;12.074;2023-04-27T01:13:48;97904.28;;;7.10;59.81
2841;BME280;53423;49.224;12.074;2023-04-27T01:16:16;97900.69;;;7.11;59.44
2841;BME280;53423;49.224;12.074;2023-04-27T01:18:45;97894.50;;;7.12;58.64
2841;BME280;53423;49.224;12.074;2023-04-27T01:21:13;97901.25;;;7.15;58.07
2841;BME280;53423;49.224;12.074;2023-04-27T01:23:43;97889.84;;;7.25;58.81
2841;BME280;53423;49.224;12.074;2023-04-27T01:26:11;97893.53;;;7.23;58.40
2841;BME280;53423;49.224;12.074;2023-04-27T01:28:42;97888.75;;;7.18;58.50
2841;BME280;53423;49.224;12.074;2023-04-27T01:31:10;97888.91;;;7.17;60.20
2841;BME280;53423;49.224;12.074;2023-04-27T01:33:38;97886.81;;;7.11;61.23
2841;BME280;53423;49.224;12.074;2023-04-27T01:36:07;97890.25;;;7.21;60.62
2841;BME280;53423;49.224;12.074;2023-04-27T01:38:35;97887.22;;;7.16;60.30
2841;BME280;53423;49.224;12.074;2023-04-27T01:41:05;97886.84;;;7.01;60.17
2841;BME280;53423;49.224;12.074;2023-04-27T01:43:35;97890.28;;;7.02;60.91
2841;BME280;53423;49.224;12.074;2023-04-27T01:46:07;97896.16;;;7.13;60.37
2841;BME280;53423;49.224;12.074;2023-04-27T01:48:36;97890.38;;;7.19;60.40
2841;BME280;53423;49.224;12.074;2023-04-27T01:51:05;97901.53;;;7.12;60.74
2841;BME280;53423;49.224;12.074;2023-04-27T01:53:33;97898.91;;;7.12;60.93
2841;BME280;53423;49.224;12.074;2023-04-27T01:56:01;97901.81;;;7.09;60.84
2841;BME280;53423;49.224;12.074;2023-04-27T01:58:30;97906.31;;;7.07;60.03
2841;BME280;53423;49.224;12.074;2023-04-27T02:00:58;97904.66;;;7.06;61.29
2841;BME280;53423;49.224;12.074;2023-04-27T02:03:26;97904.81;;;7.04;61.02
2841;BME280;53423;49.224;12.074;2023-04-27T02:05:54;97903.84;;;7.15;60.66
2841;BME280;53423;49.224;12.074;2023-04-27T02:08:22;97908.50;;;7.11;61.74
2841;BME280;53423;49.224;12.074;2023-04-27T02:10:50;97914.13;;;7.16;60.62
2841;BME280;53423;49.224;12.074;2023-04-27T02:13:18;97914.56;;;7.12;60.55
2841;BME280;53423;49.224;12.074;2023-04-27T02:15:48;97909.88;;;7.15;60.85
2841;BME280;53423;49.224;12.074;2023-04-27T02:18:16;97917.84;;;7.14;59.90
2841;BME280;53423;49.224;12.074;2023-04-27T02:20:43;97918.94;;;7.11;61.13
2841;BME280;53423;49.224;12.074;2023-04-27T02:23:11;97912.75;;;7.03;60.59
2841;BME280;53423;49.224;12.074;2023-04-27T02:25:39;97922.09;;;7.05;60.44
2841;BME280;53423;49.224;12.074;2023-04-27T02:28:12;97914.41;;;7.04;61.46
2841;BME280;53423;49.224;12.074;2023-04-27T02:30:40;97918.25;;;7.09;60.76
2841;BME280;53423;49.224;12.074;2023-04-27T02:33:09;97918.53;;;7.06;60.95
2841;BME280;53423;49.224;12.074;2023-04-27T02:35:37;97919.34;;;7.07;60.69
2841;BME280;53423;49.224;12.074;2023-04-27T02:38:05;97916.75;;;7.07;60.97
2841;BME280;53423;49.224;12.074;2023-04-27T02:40:33;97917.41;;;6.99;60.53
2841;BME280;53423;49.224;12.074;2023-04-27T02:43:01;97915.09;;;7.06;60.37
2841;BME280;53423;49.224;12.074;2023-04-27T02:45:29;97916.06;;;6.95;59.58
2841;BME280;53423;49.224;12.074;2023-04-27T02:47:57;97919.31;;;6.88;60.17
2841;BME280;53423;49.224;12.074;2023-04-27T02:50:26;97917.09;;;6.74;59.84
2841;BME280;53423;49.224;12.074;2023-04-27T02:52:54;97923.84;;;6.86;60.48
2841;BME280;53423;49.224;12.074;2023-04-27T02:55:22;97919.22;;;6.99;59.91
2841;BME280;53423;49.224;12.074;2023-04-27T02:57:51;97926.06;;;7.00;60.61
2841;BME280;53423;49.224;12.074;2023-04-27T03:00:19;97919.31;;;6.97;60.47
2841;BME280;53423;49.224;12.074;2023-04-27T03:02:47;97919.50;;;7.05;60.02
2841;BME280;53423;49.224;12.074;2023-04-27T03:05:15;97919.22;;;6.99;60.27
2841;BME280;53423;49.224;12.074;2023-04-27T03:07:45;97925.50;;;6.96;59.45
2841;BME280;53423;49.224;12.074;2023-04-27T03:10:13;97918.53;;;6.97;60.37
2841;BME280;53423;49.224;12.074;2023-04-27T03:12:40;97919.31;;;6.97;60.13
2841;BME280;53423;49.224;12.074;2023-04-27T03:15:09;97918.66;;;6.95;60.74
2841;BME280;53423;49.224;12.074;2023-04-27T03:17:37;97927.56;;;7.02;59.91
2841;BME280;53423;49.224;12.074;2023-04-27T03:20:06;97926.06;;;7.00;60.30
2841;BME280;53423;49.224;12.074;2023-04-27T03:22:35;97927.56;;;6.93;59.55
2841;BME280;53423;49.224;12.074;2023-04-27T03:25:05;97927.41;;;6.94;60.16
2841;BME280;53423;49.224;12.074;2023-04-27T03:27:33;97927.03;;;6.99;60.08
2841;BME280;53423;49.224;12.074;2023-04-27T03:30:01;97931.13;;;6.92;60.31
2841;BME280;53423;49.224;12.074;2023-04-27T03:32:30;97925.78;;;6.93;60.38
2841;BME280;53423;49.224;12.074;2023-04-27T03:34:58;97931.84;;;6.94;61.00
2841;BME280;53423;49.224;12.074;2023-04-27T03:37:26;97926.63;;;6.94;59.99
2841;BME280;53423;49.224;12.074;2023-04-27T03:39:54;97937.16;;;6.92;60.63
2841;BME280;53423;49.224;12.074;2023-04-27T03:42:23;97937.84;;;6.94;60.49
2841;BME280;53423;49.224;12.074;2023-04-27T03:44:51;97942.50;;;6.91;61.02
2841;BME280;53423;49.224;12.074;2023-04-27T03:47:19;97940.16;;;6.88;61.84
2841;BME280;53423;49.224;12.074;2023-04-27T03:49:47;97941.94;;;6.87;61.66
2841;BME280;53423;49.224;12.074;2023-04-27T03:52:15;97949.34;;;6.82;61.37
2841;BME280;53423;49.224;12.074;2023-04-27T03:54:43;97942.50;;;6.81;60.69
2841;BME280;53423;49.224;12.074;2023-04-27T03:57:11;97945.59;;;6.56;60.87
2841;BME280;53423;49.224;12.074;2023-04-27T03:59:40;97958.25;;;6.40;61.44
2841;BME280;53423;49.224;12.074;2023-04-27T04:02:08;97959.31;;;6.58;60.28
2841;BME280;53423;49.224;12.074;2023-04-27T04:04:37;97956.91;;;6.46;60.33
2841;BME280;53423;49.224;12.074;2023-04-27T04:07:05;97954.19;;;6.47;60.31
2841;BME280;53423;49.224;12.074;2023-04-27T04:09:33;97961.19;;;6.47;61.16
2841;BME280;53423;49.224;12.074;2023-04-27T04:12:01;97957.41;;;6.30;61.20
2841;BME280;53423;49.224;12.074;2023-04-27T04:14:29;97963.09;;;6.45;61.31
2841;BME280;53423;49.224;12.074;2023-04-27T04:16:58;97963.28;;;6.62;60.13
2841;BME280;53423;49.224;12.074;2023-04-27T04:19:26;97970.53;;;6.59;60.49
2841;BME280;53423;49.224;12.074;2023-04-27T04:21:54;97971.28;;;6.70;60.40
2841;BME280;53423;49.224;12.074;2023-04-27T04:24:23;97966.72;;;6.72;59.75
2841;BME280;53423;49.224;12.074;2023-04-27T04:26:51;97970.31;;;6.81;59.60
2841;BME280;53423;49.224;12.074;2023-04-27T04:29:19;97971.78;;;6.64;60.74
2841;BME280;53423;49.224;12.074;2023-04-27T04:31:47;97967.69;;;6.71;59.95
2841;BME280;53423;49.224;12.074;2023-04-27T04:34:16;97974.72;;;6.80;60.18
2841;BME280;53423;49.224;12.074;2023-04-27T04:36:44;97984.81;;;6.74;59.65
2841;BME280;53423;49.224;12.074;2023-04-27T04:39:12;97982.22;;;6.74;59.60
2841;BME280;53423;49.224;12.074;2023-04-27T04:41:41;97976.91;;;6.85;60.16
2841;BME280;53423;49.224;12.074;2023-04-27T04:44:09;97985.72;;;7.03;58.86
2841;BME280;53423;49.224;12.074;2023-04-27T04:46:37;97984.38;;;7.08;59.32
2841;BME280;53423;49.224;12.074;2023-04-27T04:49:05;97986.31;;;7.25;58.78
2841;BME280;53423;49.224;12.074;2023-04-27T04:51:34;97985.19;;;7.18;59.13
2841;BME280;53423;49.224;12.074;2023-04-27T04:54:02;97979.16;;;7.18;59.06
2841;BME280;53423;49.224;12.074;2023-04-27T04:56:30;97987.84;;;7.37;59.11
2841;BME280;53423;49.224;12.074;2023-04-27T04:58:58;97985.63;;;7.23;58.32
2841;BME280;53423;49.224;12.074;2023-04-27T05:01:26;97983.41;;;7.38;58.65
2841;BME280;53423;49.224;12.074;2023-04-27T05:03:54;97972.03;;;7.58;58.27
2841;BME280;53423;49.224;12.074;2023-04-27T05:06:22;97981.91;;;7.26;59.16
2841;BME280;53423;49.224;12.074;2023-04-27T05:08:52;97972.59;;;7.42;59.18
2841;BME280;53423;49.224;12.074;2023-04-27T05:11:19;97976.69;;;7.64;58.91
2841;BME280;53423;49.224;12.074;2023-04-27T05:13:47;97978.75;;;7.70;59.25
2841;BME280;53423;49.224;12.074;2023-04-27T05:16:15;97972.44;;;7.73;59.15
2841;BME280;53423;49.224;12.074;2023-04-27T05:18:43;97975.16;;;7.81;60.19
2841;BME280;53423;49.224;12.074;2023-04-27T05:21:14;97971.88;;;7.59;59.56
2841;BME280;53423;49.224;12.074;2023-04-27T05:23:43;97977.34;;;7.85;58.87
2841;BME280;53423;49.224;12.074;2023-04-27T05:26:13;97978.84;;;7.78;57.81
2841;BME280;53423;49.224;12.074;2023-04-27T05:28:41;97988.09;;;7.73;58.77
2841;BME280;53423;49.224;12.074;2023-04-27T05:31:09;97985.88;;;7.78;58.10
2841;BME280;53423;49.224;12.074;2023-04-27T05:33:37;97983.69;;;7.64;59.05
2841;BME280;53423;49.224;12.074;2023-04-27T05:36:05;97991.25;;;7.47;59.68
2841;BME280;53423;49.224;12.074;2023-04-27T05:38:33;97995.25;;;7.32;59.79
2841;BME280;53423;49.224;12.074;2023-04-27T05:41:05;97992.19;;;7.18;60.99
2841;BME280;53423;49.224;12.074;2023-04-27T05:43:34;97996.03;;;7.62;59.10
2841;BME280;53423;49.224;12.074;2023-04-27T05:46:04;97988.41;;;8.16;57.44
2841;BME280;53423;49.224;12.074;2023-04-27T05:48:33;97998.53;;;8.38;57.25
2841;BME280;53423;49.224;12.074;2023-04-27T05:51:01;98002.75;;;7.93;59.40
2841;BME280;53423;49.224;12.074;2023-04-27T05:53:29;97995.91;;;7.82;59.17
2841;BME280;53423;49.224;12.074;2023-04-27T05:55:57;97994.75;;;8.04;57.15
2841;BME280;53423;49.224;12.074;2023-04-27T05:58:26;97989.81;;;8.01;58.42
2841;BME280;53423;49.224;12.074;2023-04-27T06:00:56;97989.50;;;8.23;57.73
2841;BME280;53423;49.224;12.074;2023-04-27T06:03:24;97996.53;;;8.59;56.46
2841;BME280;53423;49.224;12.074;2023-04-27T06:05:53;97994.59;;;8.88;55.96
2841;BME280;53423;49.224;12.074;2023-04-27T06:08:24;98002.22;;;8.82;55.98
2841;BME280;53423;49.224;12.074;2023-04-27T06:10:53;97997.69;;;8.74;56.49
2841;BME280;53423;49.224;12.074;2023-04-27T06:13:21;98004.97;;;8.80;56.48
2841;BME280;53423;49.224;12.074;2023-04-27T06:15:49;98000.38;;;9.09;55.08
2841;BME280;53423;49.224;12.074;2023-04-27T06:18:18;98006.50;;;9.00;56.36
2841;BME280;53423;49.224;12.074;2023-04-27T06:20:46;98004.59;;;9.20;55.19
2841;BME280;53423;49.224;12.074;2023-04-27T06:23:14;98008.50;;;9.68;54.08
2841;BME280;53423;49.224;12.074;2023-04-27T06:25:42;98011.47;;;9.38;54.50
2841;BME280;53423;49.224;12.074;2023-04-27T06:28:10;98005.78;;;9.25;54.48
2841;BME280;53423;49.224;12.074;2023-04-27T06:30:38;98010.13;;;9.34;54.57
2841;BME280;53423;49.224;12.074;2023-04-27T06:33:06;98006.28;;;9.81;53.25
2841;BME280;53423;49.224;12.074;2023-04-27T06:35:35;98009.09;;;10.05;52.20
2841;BME280;53423;49.224;12.074;2023-04-27T06:38:03;98013.19;;;9.82;53.54
2841;BME280;53423;49.224;12.074;2023-04-27T06:40:34;98014.31;;;9.80;53.15
2841;BME280;53423;49.224;12.074;2023-04-27T06:43:02;98018.22;;;9.76;53.67
2841;BME280;53423;49.224;12.074;2023-04-27T06:45:30;98019.53;;;9.97;52.47
2841;BME280;53423;49.224;12.074;2023-04-27T06:47:58;98022.88;;;10.07;52.12
2841;BME280;53423;49.224;12.074;2023-04-27T06:50:26;98018.03;;;9.95;52.46
2841;BME280;53423;49.224;12.074;2023-04-27T06:52:56;98010.38;;;10.19;51.27
2841;BME280;53423;49.224;12.074;2023-04-27T06:55:24;98006.88;;;9.93;53.66
2841;BME280;53423;49.224;12.074;2023-04-27T06:57:52;98007.91;;;10.00;53.87
2841;BME280;53423;49.224;12.074;2023-04-27T07:00:20;98009.47;;;10.28;53.14
2841;BME280;53423;49.224;12.074;2023-04-27T07:02:48;98015.78;;;10.77;51.47
2841;BME280;53423;49.224;12.074;2023-04-27T07:05:17;98009.69;;;11.18;48.96
2841;BME280;53423;49.224;12.074;2023-04-27T07:07:45;98016.81;;;11.50;49.77
2841;BME280;53423;49.224;12.074;2023-04-27T07:10:14;98016.06;;;11.73;47.73
2841;BME280;53423;49.224;12.074;2023-04-27T07:12:42;98018.03;;;11.95;47.46
2841;BME280;53423;49.224;12.074;2023-04-27T07:15:10;98016.19;;;12.44;46.38
2841;BME280;53423;49.224;12.074;2023-04-27T07:17:38;98014.72;;;12.88;46.26
2841;BME280;53423;49.224;12.074;2023-04-27T07:20:07;98019.59;;;12.99;44.56
2841;BME280;53423;49.224;12.074;2023-04-27T07:22:35;98011.22;;;13.12;44.19
2841;BME280;53423;49.224;12.074;2023-04-27T07:25:04;98010.47;;;13.79;43.15
2841;BME280;53423;49.224;12.074;2023-04-27T07:27:33;98008.19;;;14.13;42.65
2841;BME280;53423;49.224;12.074;2023-04-27T07:30:01;98011.13;;;14.70;40.94
2841;BME280;53423;49.224;12.074;2023-04-27T07:32:30;98005.63;;;15.15;40.00
2841;BME280;53423;49.224;12.074;2023-04-27T07:34:58;98006.13;;;16.03;38.53
2841;BME280;53423;49.224;12.074;2023-04-27T07:37:26;98002.22;;;17.76;35.51
2841;BME280;53423;49.224;12.074;2023-04-27T07:39:55;97992.88;;;18.26;34.40
2841;BME280;53423;49.224;12.074;2023-04-27T07:42:23;97999.41;;;17.97;34.31
2841;BME280;53423;49.224;12.074;2023-04-27T07:44:52;97999.00;;;17.27;34.60
2841;BME280;53423;49.224;12.074;2023-04-27T07:47:20;97999.19;;;16.78;35.45
2841;BME280;53423;49.224;12.074;2023-04-27T07:49:49;98004.38;;;14.67;38.33
2841;BME280;53423;49.224;12.074;2023-04-27T07:52:18;98000.56;;;15.35;36.51
2841;BME280;53423;49.224;12.074;2023-04-27T07:54:46;97999.63;;;15.99;36.73
2841;BME280;53423;49.224;12.074;2023-04-27T07:57:14;98004.31;;;16.52;36.60
2841;BME280;53423;49.224;12.074;2023-04-27T07:59:42;98005.94;;;16.87;35.61
2841;BME280;53423;49.224;12.074;2023-04-27T08:02:11;98004.63;;;16.70;36.72
2841;BME280;53423;49.224;12.074;2023-04-27T08:04:45;98009.88;;;16.64;36.04
2841;BME280;53423;49.224;12.074;2023-04-27T08:07:14;98012.81;;;17.16;34.38
2841;BME280;53423;49.224;12.074;2023-04-27T08:09:43;98009.84;;;17.32;35.50
2841;BME280;53423;49.224;12.074;2023-04-27T08:12:11;98002.16;;;17.50;35.21
2841;BME280;53423;49.224;12.074;2023-04-27T08:14:39;98006.50;;;16.76;34.65
2841;BME280;53423;49.224;12.074;2023-04-27T08:17:07;98009.50;;;17.48;35.14
2841;BME280;53423;49.224;12.074;2023-04-27T08:19:36;98001.81;;;18.38;33.36
2841;BME280;53423;49.224;12.074;2023-04-27T08:22:04;98001.81;;;18.71;31.50
2841;BME280;53423;49.224;12.074;2023-04-27T08:24:32;98000.19;;;18.70;32.31
2841;BME280;53423;49.224;12.074;2023-04-27T08:27:00;98005.75;;;18.09;32.41
2841;BME280;53423;49.224;12.074;2023-04-27T08:29:28;98000.44;;;18.42;31.41
2841;BME280;53423;49.224;12.074;2023-04-27T08:31:58;98000.00;;;18.38;31.34
2841;BME280;53423;49.224;12.074;2023-04-27T08:34:26;98008.38;;;18.62;31.51
2841;BME280;53423;49.224;12.074;2023-04-27T08:36:56;98002.78;;;18.96;30.39
2841;BME280;53423;49.224;12.074;2023-04-27T08:39:24;97998.16;;;19.22;30.57
2841;BME280;53423;49.224;12.074;2023-04-27T08:41:52;98005.69;;;17.70;34.12
2841;BME280;53423;49.224;12.074;2023-04-27T08:44:20;98001.44;;;18.61;32.02
2841;BME280;53423;49.224;12.074;2023-04-27T08:46:48;97996.50;;;18.77;31.56
2841;BME280;53423;49.224;12.074;2023-04-27T08:49:17;98004.50;;;18.31;31.16
2841;BME280;53423;49.224;12.074;2023-04-27T08:51:46;97994.50;;;18.07;32.92
2841;BME280;53423;49.224;12.074;2023-04-27T08:54:15;98001.28;;;17.43;32.92
2841;BME280;53423;49.224;12.074;2023-04-27T08:56:44;98003.91;;;18.29;31.34
2841;BME280;53423;49.224;12.074;2023-04-27T08:59:13;97995.19;;;19.06;31.44
2841;BME280;53423;49.224;12.074;2023-04-27T09:01:43;97998.22;;;19.16;30.13
2841;BME280;53423;49.224;12.074;2023-04-27T09:04:12;97998.25;;;19.60;29.52
2841;BME280;53423;49.224;12.074;2023-04-27T09:06:40;98000.94;;;19.85;28.78
2841;BME280;53423;49.224;12.074;2023-04-27T09:09:08;97996.69;;;20.08;28.59
2841;BME280;53423;49.224;12.074;2023-04-27T09:11:38;97991.66;;;20.49;26.48
2841;BME280;53423;49.224;12.074;2023-04-27T09:14:15;97995.19;;;20.43;26.07
2841;BME280;53423;49.224;12.074;2023-04-27T09:16:43;97995.91;;;20.32;26.49
2841;BME280;53423;49.224;12.074;2023-04-27T09:19:22;98000.53;;;19.81;26.25
2841;BME280;53423;49.224;12.074;2023-04-27T09:22:02;97988.75;;;20.02;25.15
2841;BME280;53423;49.224;12.074;2023-04-27T09:24:30;97992.50;;;20.43;25.59
2841;BME280;53423;49.224;12.074;2023-04-27T09:26:59;98001.38;;;19.50;25.56
2841;BME280;53423;49.224;12.074;2023-04-27T09:29:34;97993.94;;;19.15;24.92
2841;BME280;53423;49.224;12.074;2023-04-27T09:32:13;97980.91;;;19.82;26.67
2841;BME280;53423;49.224;12.074;2023-04-27T09:34:44;97993.06;;;20.27;26.04
2841;BME280;53423;49.224;12.074;2023-04-27T09:37:13;97989.72;;;20.07;24.18
2841;BME280;53423;49.224;12.074;2023-04-27T09:39:41;97981.47;;;19.91;24.62
2841;BME280;53423;49.224;12.074;2023-04-27T09:42:11;97977.63;;;20.96;23.53
2841;BME280;53423;49.224;12.074;2023-04-27T09:44:39;97970.34;;;21.40;24.57
2841;BME280;53423;49.224;12.074;2023-04-27T09:47:08;97973.97;;;21.27;25.25
2841;BME280;53423;49.224;12.074;2023-04-27T09:49:39;97964.72;;;21.59;22.09
2841;BME280;53423;49.224;12.074;2023-04-27T09:52:09;97962.97;;;22.59;21.96
2841;BME280;53423;49.224;12.074;2023-04-27T09:54:37;97959.50;;;23.09;20.86
2841;BME280;53423;49.224;12.074;2023-04-27T09:57:15;97961.44;;;23.82;18.88
2841;BME280;53423;49.224;12.074;2023-04-27T10:00:02;97957.03;;;23.31;19.74
2841;BME280;53423;49.224;12.074;2023-04-27T10:02:41;97946.69;;;25.43;18.29
2841;BME280;53423;49.224;12.074;2023-04-27T10:05:37;97934.66;;;25.51;18.06
2841;BME280;53423;49.224;12.074;2023-04-27T10:08:09;97935.94;;;26.70;17.67
2841;BME280;53423;49.224;12.074;2023-04-27T10:10:46;97935.38;;;25.68;17.95
2841;BME280;53423;49.224;12.074;2023-04-27T10:13:23;97934.97;;;26.44;16.30
2841;BME280;53423;49.224;12.074;2023-04-27T10:15:52;97927.09;;;29.51;15.87
2841;BME280;53423;49.224;12.074;2023-04-27T10:18:28;97933.97;;;26.55;14.42
2841;BME280;53423;49.224;12.074;2023-04-27T10:21:08;97924.75;;;28.65;13.66
2841;BME280;53423;49.224;12.074;2023-04-27T10:23:45;97930.69;;;28.67;13.63
2841;BME280;53423;49.224;12.074;2023-04-27T10:26:21;97924.75;;;30.50;13.43
2841;BME280;53423;49.224;12.074;2023-04-27T10:28:57;97921.03;;;31.59;11.93
2841;BME280;53423;49.224;12.074;2023-04-27T10:31:26;97915.00;;;30.78;12.22
2841;BME280;53423;49.224;12.074;2023-04-27T10:34:05;97913.63;;;29.89;12.44
2841;BME280;53423;49.224;12.074;2023-04-27T10:36:34;97909.75;;;31.10;12.56
2841;BME280;53423;49.224;12.074;2023-04-27T10:39:13;97909.25;;;31.08;12.95
2841;BME280;53423;49.224;12.074;2023-04-27T10:41:50;97908.38;;;31.31;12.55
2841;BME280;53423;49.224;12.074;2023-04-27T10:44:25;97909.47;;;30.02;13.18
2841;BME280;53423;49.224;12.074;2023-04-27T10:46:55;97912.75;;;30.32;13.11
2841;BME280;53423;49.224;12.074;2023-04-27T10:49:26;97906.94;;;30.15;12.92
2841;BME280;53423;49.224;12.074;2023-04-27T10:51:56;97906.16;;;30.67;13.13
2841;BME280;53423;49.224;12.074;2023-04-27T10:54:26;97891.50;;;30.16;12.79
2841;BME280;53423;49.224;12.074;2023-04-27T10:57:01;97911.97;;;24.94;17.06
2841;BME280;53423;49.224;12.074;2023-04-27T10:59:31;97896.44;;;27.82;14.69
2841;BME280;53423;49.224;12.074;2023-04-27T11:01:59;97892.00;;;27.11;15.52
2841;BME280;53423;49.224;12.074;2023-04-27T11:04:37;97891.03;;;28.68;14.56
2841;BME280;53423;49.224;12.074;2023-04-27T11:07:06;97885.97;;;28.16;14.41
2841;BME280;53423;49.224;12.074;2023-04-27T11:09:35;97897.81;;;27.65;14.04
2841;BME280;53423;49.224;12.074;2023-04-27T11:12:05;97901.00;;;26.33;16.77
2841;BME280;53423;49.224;12.074;2023-04-27T11:14:35;97897.63;;;24.83;18.00
2841;BME280;53423;49.224;12.074;2023-04-27T11:17:04;97907.03;;;23.08;22.04
2841;BME280;53423;49.224;12.074;2023-04-27T11:19:31;97903.38;;;23.26;21.92
2841;BME280;53423;49.224;12.074;2023-04-27T11:22:03;97902.47;;;23.77;18.10
2841;BME280;53423;49.224;12.074;2023-04-27T11:24:31;97901.13;;;23.63;18.45
2841;BME280;53423;49.224;12.074;2023-04-27T11:26:59;97911.75;;;23.01;20.77
2841;BME280;53423;49.224;12.074;2023-04-27T11:29:37;97901.38;;;23.05;18.89
2841;BME280;53423;49.224;12.074;2023-04-27T11:32:05;97903.56;;;24.47;18.07
2841;BME280;53423;49.224;12.074;2023-04-27T11:34:33;97898.00;;;23.09;20.86
2841;BME280;53423;49.224;12.074;2023-04-27T11:37:05;97891.38;;;24.56;18.08
2841;BME280;53423;49.224;12.074;2023-04-27T11:39:38;97890.69;;;24.66;18.87
2841;BME280;53423;49.224;12.074;2023-04-27T11:42:14;97897.03;;;23.15;19.22
2841;BME280;53423;49.224;12.074;2023-04-27T11:44:51;97895.53;;;23.81;19.10
2841;BME280;53423;49.224;12.074;2023-04-27T11:47:19;97892.44;;;22.13;24.36
2841;BME280;53423;49.224;12.074;2023-04-27T11:49:49;97889.28;;;22.05;20.88
2841;BME280;53423;49.224;12.074;2023-04-27T11:52:17;97892.47;;;21.72;24.31
2841;BME280;53423;49.224;12.074;2023-04-27T11:54:47;97900.25;;;20.06;23.63
2841;BME280;53423;49.224;12.074;2023-04-27T11:57:15;97898.59;;;22.26;19.64
2841;BME280;53423;49.224;12.074;2023-04-27T11:59:43;97896.25;;;22.41;20.50
2841;BME280;53423;49.224;12.074;2023-04-27T12:02:13;97896.56;;;23.30;21.14
2841;BME280;53423;49.224;12.074;2023-04-27T12:04:41;97898.31;;;23.13;20.36
2841;BME280;53423;49.224;12.074;2023-04-27T12:07:09;97891.84;;;23.98;19.43
2841;BME280;53423;49.224;12.074;2023-04-27T12:09:37;97892.03;;;24.46;19.13
2841;BME280;53423;49.224;12.074;2023-04-27T12:12:06;97891.53;;;24.88;18.32
2841;BME280;53423;49.224;12.074;2023-04-27T12:14:34;97890.72;;;24.87;18.98
2841;BME280;53423;49.224;12.074;2023-04-27T12:17:02;97886.56;;;24.03;20.06
2841;BME280;53423;49.224;12.074;2023-04-27T12:19:31;97884.63;;;24.53;18.82
2841;BME280;53423;49.224;12.074;2023-04-27T12:21:59;97885.25;;;24.61;18.26
2841;BME280;53423;49.224;12.074;2023-04-27T12:24:27;97884.66;;;23.54;22.20
2841;BME280;53423;49.224;12.074;2023-04-27T12:26:55;97880.22;;;21.83;21.78
2841;BME280;53423;49.224;12.074;2023-04-27T12:29:23;97877.34;;;22.31;23.43
2841;BME280;53423;49.224;12.074;2023-04-27T12:31:51;97875.25;;;22.95;24.26
2841;BME280;53423;49.224;12.074;2023-04-27T12:34:20;97871.59;;;23.74;21.73
2841;BME280;53423;49.224;12.074;2023-04-27T12:36:52;97878.19;;;23.10;20.52
2841;BME280;53423;49.224;12.074;2023-04-27T12:39:21;97884.63;;;20.88;23.55
2841;BME280;53423;49.224;12.074;2023-04-27T12:41:51;97877.47;;;20.71;23.01
2841;BME280;53423;49.224;12.074;2023-04-27T12:44:20;97884.69;;;19.60;25.75
2841;BME280;53423;49.224;12.074;2023-04-27T12:46:48;97888.41;;;19.53;27.75
2841;BME280;53423;49.224;12.074;2023-04-27T12:49:17;97881.44;;;19.58;25.01
2841;BME280;53423;49.224;12.074;2023-04-27T12:51:45;97888.88;;;18.62;29.97
2841;BME280;53423;49.224;12.074;2023-04-27T12:54:18;97882.06;;;18.02;30.81
2841;BME280;53423;49.224;12.074;2023-04-27T12:56:46;97886.34;;;18.86;29.00
2841;BME280;53423;49.224;12.074;2023-04-27T12:59:14;97877.53;;;19.30;28.83
2841;BME280;53423;49.224;12.074;2023-04-27T13:01:43;97873.59;;;19.88;25.42
2841;BME280;53423;49.224;12.074;2023-04-27T13:04:17;97879.22;;;20.77;25.51
2841;BME280;53423;49.224;12.074;2023-04-27T13:06:46;97881.25;;;20.45;24.52
2841;BME280;53423;49.224;12.074;2023-04-27T13:09:14;97883.03;;;19.35;26.74
2841;BME280;53423;49.224;12.074;2023-04-27T13:11:43;97875.22;;;19.64;25.37
2841;BME280;53423;49.224;12.074;2023-04-27T13:14:11;97877.03;;;20.13;25.93
2841;BME280;53423;49.224;12.074;2023-04-27T13:16:41;97881.25;;;19.53;32.86